sensor_id;sensor_type;location;lat;lon;timestamp;temperature;humidity
3406;DHT22;10008;48.682;9.016;2022-11-15T00:00:54;8.30;99.90
3406;DHT22;10008;48.682;9.016;2022-11-15T00:03:38;8.20;99.90
3406;DHT22;10008;48.682;9.016;2022-11-15T00:06:22;8.20;99.90
3406;DHT22;10008;48.682;9.016;2022-11-15T00:09:06;8.20;99.90
3406;DHT22;10008;48.682;9.016;2022-11-15T00:11:51;8.20;99.90
3406;DHT22;10008;48.682;9.016;2022-11-15T00:14:35;8.10;99.90
3406;DHT22;10008;48.682;9.016;2022-11-15T00:17:19;8.10;99.90
3406;DHT22;10008;48.682;9.016;2022-11-15T00:20:04;8.00;99.90
3406;DHT22;10008;48.682;9.016;2022-11-15T00:22:48;8.00;99.90
3406;DHT22;10008;48.682;9.016;2022-11-15T00:25:32;7.90;99.90
3406;DHT22;10008;48.682;9.016;2022-11-15T00:28:16;7.90;99.90
3406;DHT22;10008;48.682;9.016;2022-11-15T00:31:06;7.90;99.90
3406;DHT22;10008;48.682;9.016;2022-11-15T00:33:51;7.80;99.90
3406;DHT22;10008;48.682;9.016;2022-11-15T00:36:35;7.70;99.90
3406;DHT22;10008;48.682;9.016;2022-11-15T00:39:19;7.70;99.90
3406;DHT22;10008;48.682;9.016;2022-11-15T00:42:03;7.60;99.90
3406;DHT22;10008;48.682;9.016;2022-11-15T00:44:47;7.60;99.90
3406;DHT22;10008;48.682;9.016;2022-11-15T00:47:31;7.60;99.90
3406;DHT22;10008;48.682;9.016;2022-11-15T00:50:16;7.60;99.90
3406;DHT22;10008;48.682;9.016;2022-11-15T00:53:00;7.50;99.90
3406;DHT22;10008;48.682;9.016;2022-11-15T00:55:44;7.30;99.90
3406;DHT22;10008;48.682;9.016;2022-11-15T00:58:30;7.10;99.90
3406;DHT22;10008;48.682;9.016;2022-11-15T01:01:15;7.10;99.90
3406;DHT22;10008;48.682;9.016;2022-11-15T01:03:59;7.00;99.90
3406;DHT22;10008;48.682;9.016;2022-11-15T01:06:43;7.00;99.90
3406;DHT22;10008;48.682;9.016;2022-11-15T01:09:27;7.10;99.90
3406;DHT22;10008;48.682;9.016;2022-11-15T01:12:12;7.20;99.90
3406;DHT22;10008;48.682;9.016;2022-11-15T01:14:56;7.20;99.90
3406;DHT22;10008;48.682;9.016;2022-11-15T01:17:40;7.20;99.90
3406;DHT22;10008;48.682;9.016;2022-11-15T01:20:24;7.20;99.90
3406;DHT22;10008;48.682;9.016;2022-11-15T01:23:09;7.20;99.90
3406;DHT22;10008;48.682;9.016;2022-11-15T01:25:58;7.20;99.90
3406;DHT22;10008;48.682;9.016;2022-11-15T01:28:43;7.10;99.90
3406;DHT22;10008;48.682;9.016;2022-11-15T01:31:27;7.10;99.90
3406;DHT22;10008;48.682;9.016;2022-11-15T01:34:11;7.10;99.90
3406;DHT22;10008;48.682;9.016;2022-11-15T01:36:55;7.10;99.90
3406;DHT22;10008;48.682;9.016;2022-11-15T01:39:39;7.10;99.90
3406;DHT22;10008;48.682;9.016;2022-11-15T01:42:23;7.00;99.90
3406;DHT22;10008;48.682;9.016;2022-11-15T01:45:14;7.00;99.90
3406;DHT22;10008;48.682;9.016;2022-11-15T01:47:59;7.00;99.90
3406;DHT22;10008;48.682;9.016;2022-11-15T01:50:43;7.00;99.90
3406;DHT22;10008;48.682;9.016;2022-11-15T01:53:28;7.10;99.90
3406;DHT22;10008;48.682;9.016;2022-11-15T01:56:16;7.10;99.90
3406;DHT22;10008;48.682;9.016;2022-11-15T01:59:04;7.20;99.90
3406;DHT22;10008;48.682;9.016;2022-11-15T02:01:50;7.20;99.90
3406;DHT22;10008;48.682;9.016;2022-11-15T02:04:41;7.20;99.90
3406;DHT22;10008;48.682;9.016;2022-11-15T02:07:26;7.10;99.90
3406;DHT22;10008;48.682;9.016;2022-11-15T02:10:17;7.10;99.90
3406;DHT22;10008;48.682;9.016;2022-11-15T02:13:02;7.10;99.90
3406;DHT22;10008;48.682;9.016;2022-11-15T02:19:02;7.10;99.90
3406;DHT22;10008;48.682;9.016;2022-11-15T02:34:46;7.30;99.90
3406;DHT22;10008;48.682;9.016;2022-11-15T02:40:49;7.30;99.90
3406;DHT22;10008;48.682;9.016;2022-11-15T02:43:55;7.30;99.90
3406;DHT22;10008;48.682;9.016;2022-11-15T02:50:10;7.20;99.90
3406;DHT22;10008;48.682;9.016;2022-11-15T02:52:55;7.20;99.90
3406;DHT22;10008;48.682;9.016;2022-11-15T02:55:46;7.20;99.90
3406;DHT22;10008;48.682;9.016;2022-11-15T03:01:59;7.20;99.90
3406;DHT22;10008;48.682;9.016;2022-11-15T03:16:41;7.40;99.90
3406;DHT22;10008;48.682;9.016;2022-11-15T03:19:46;7.50;99.90
3406;DHT22;10008;48.682;9.016;2022-11-15T03:22:36;7.50;99.90
3406;DHT22;10008;48.682;9.016;2022-11-15T03:25:23;7.60;99.90
3406;DHT22;10008;48.682;9.016;2022-11-15T03:28:10;7.60;99.90
3406;DHT22;10008;48.682;9.016;2022-11-15T03:30:56;7.60;99.90
3406;DHT22;10008;48.682;9.016;2022-11-15T03:33:41;7.70;99.90
3406;DHT22;10008;48.682;9.016;2022-11-15T03:36:27;7.60;99.90
3406;DHT22;10008;48.682;9.016;2022-11-15T03:39:12;7.60;99.90
3406;DHT22;10008;48.682;9.016;2022-11-15T03:42:26;7.50;99.90
3406;DHT22;10008;48.682;9.016;2022-11-15T03:45:23;7.60;99.90
3406;DHT22;10008;48.682;9.016;2022-11-15T03:48:16;7.60;99.90
3406;DHT22;10008;48.682;9.016;2022-11-15T03:51:04;7.70;99.90
3406;DHT22;10008;48.682;9.016;2022-11-15T03:53:48;7.70;99.90
3406;DHT22;10008;48.682;9.016;2022-11-15T03:56:32;7.70;99.90
3406;DHT22;10008;48.682;9.016;2022-11-15T03:59:16;7.60;99.90
3406;DHT22;10008;48.682;9.016;2022-11-15T04:02:00;7.60;99.90
3406;DHT22;10008;48.682;9.016;2022-11-15T04:04:45;7.60;99.90
3406;DHT22;10008;48.682;9.016;2022-11-15T04:07:29;7.70;99.90
3406;DHT22;10008;48.682;9.016;2022-11-15T04:10:13;7.70;99.90
3406;DHT22;10008;48.682;9.016;2022-11-15T04:12:58;7.80;99.90
3406;DHT22;10008;48.682;9.016;2022-11-15T04:15:42;7.70;99.90
3406;DHT22;10008;48.682;9.016;2022-11-15T04:18:26;7.70;99.90
3406;DHT22;10008;48.682;9.016;2022-11-15T04:21:10;7.70;99.90
3406;DHT22;10008;48.682;9.016;2022-11-15T04:24:13;7.70;99.90
3406;DHT22;10008;48.682;9.016;2022-11-15T04:26:57;7.70;99.90
3406;DHT22;10008;48.682;9.016;2022-11-15T04:29:41;7.70;99.90
3406;DHT22;10008;48.682;9.016;2022-11-15T04:32:27;7.80;99.90
3406;DHT22;10008;48.682;9.016;2022-11-15T04:35:11;7.80;99.90
3406;DHT22;10008;48.682;9.016;2022-11-15T04:37:56;7.90;99.90
3406;DHT22;10008;48.682;9.016;2022-11-15T04:40:41;8.00;99.90
3406;DHT22;10008;48.682;9.016;2022-11-15T04:43:26;8.00;99.90
3406;DHT22;10008;48.682;9.016;2022-11-15T04:46:10;8.00;99.90
3406;DHT22;10008;48.682;9.016;2022-11-15T04:48:54;8.10;99.90
3406;DHT22;10008;48.682;9.016;2022-11-15T04:51:39;8.00;99.90
3406;DHT22;10008;48.682;9.016;2022-11-15T04:54:23;8.10;99.90
3406;DHT22;10008;48.682;9.016;2022-11-15T04:57:07;8.00;99.90
3406;DHT22;10008;48.682;9.016;2022-11-15T04:59:51;8.00;99.90
3406;DHT22;10008;48.682;9.016;2022-11-15T05:02:36;7.80;99.90
3406;DHT22;10008;48.682;9.016;2022-11-15T05:05:39;7.80;99.90
3406;DHT22;10008;48.682;9.016;2022-11-15T05:08:24;7.80;99.90
3406;DHT22;10008;48.682;9.016;2022-11-15T05:11:08;7.80;99.90
3406;DHT22;10008;48.682;9.016;2022-11-15T05:13:52;7.70;99.90
3406;DHT22;10008;48.682;9.016;2022-11-15T05:16:37;7.70;99.90
3406;DHT22;10008;48.682;9.016;2022-11-15T05:19:21;7.60;99.90
3406;DHT22;10008;48.682;9.016;2022-11-15T05:22:05;7.60;99.90
3406;DHT22;10008;48.682;9.016;2022-11-15T05:24:49;7.60;99.90
3406;DHT22;10008;48.682;9.016;2022-11-15T05:27:34;7.60;99.90
3406;DHT22;10008;48.682;9.016;2022-11-15T05:30:19;7.70;99.90
3406;DHT22;10008;48.682;9.016;2022-11-15T05:33:03;7.60;99.90
3406;DHT22;10008;48.682;9.016;2022-11-15T05:35:52;7.60;99.90
3406;DHT22;10008;48.682;9.016;2022-11-15T05:38:38;7.60;99.90
3406;DHT22;10008;48.682;9.016;2022-11-15T05:41:52;7.70;99.90
3406;DHT22;10008;48.682;9.016;2022-11-15T05:44:39;7.70;99.90
3406;DHT22;10008;48.682;9.016;2022-11-15T05:47:27;7.70;99.90
3406;DHT22;10008;48.682;9.016;2022-11-15T05:50:16;7.60;99.90
3406;DHT22;10008;48.682;9.016;2022-11-15T05:53:01;7.60;99.90
3406;DHT22;10008;48.682;9.016;2022-11-15T05:55:46;7.50;99.90
3406;DHT22;10008;48.682;9.016;2022-11-15T05:58:32;7.40;99.90
3406;DHT22;10008;48.682;9.016;2022-11-15T06:01:16;7.40;99.90
3406;DHT22;10008;48.682;9.016;2022-11-15T06:04:01;7.40;99.90
3406;DHT22;10008;48.682;9.016;2022-11-15T06:06:45;7.50;99.90
3406;DHT22;10008;48.682;9.016;2022-11-15T06:09:29;7.50;99.90
3406;DHT22;10008;48.682;9.016;2022-11-15T06:12:13;7.40;99.90
3406;DHT22;10008;48.682;9.016;2022-11-15T06:14:57;7.50;99.90
3406;DHT22;10008;48.682;9.016;2022-11-15T06:17:41;7.50;99.90
3406;DHT22;10008;48.682;9.016;2022-11-15T06:20:27;7.50;99.90
3406;DHT22;10008;48.682;9.016;2022-11-15T06:23:12;7.40;99.90
3406;DHT22;10008;48.682;9.016;2022-11-15T06:25:58;7.30;99.90
3406;DHT22;10008;48.682;9.016;2022-11-15T06:28:43;7.30;99.90
3406;DHT22;10008;48.682;9.016;2022-11-15T06:31:26;7.20;99.90
3406;DHT22;10008;48.682;9.016;2022-11-15T06:34:11;7.30;99.90
3406;DHT22;10008;48.682;9.016;2022-11-15T06:36:55;7.40;99.90
3406;DHT22;10008;48.682;9.016;2022-11-15T06:39:40;7.40;99.90
3406;DHT22;10008;48.682;9.016;2022-11-15T06:42:24;7.50;99.90
3406;DHT22;10008;48.682;9.016;2022-11-15T06:45:08;7.60;99.90
3406;DHT22;10008;48.682;9.016;2022-11-15T06:47:53;7.80;99.90
3406;DHT22;10008;48.682;9.016;2022-11-15T06:50:37;7.90;99.90
3406;DHT22;10008;48.682;9.016;2022-11-15T06:53:22;8.00;99.90
3406;DHT22;10008;48.682;9.016;2022-11-15T06:56:06;8.10;99.90
3406;DHT22;10008;48.682;9.016;2022-11-15T06:58:51;8.10;99.90
3406;DHT22;10008;48.682;9.016;2022-11-15T07:01:35;8.20;99.90
3406;DHT22;10008;48.682;9.016;2022-11-15T07:04:19;8.20;99.90
3406;DHT22;10008;48.682;9.016;2022-11-15T07:07:03;8.30;99.90
3406;DHT22;10008;48.682;9.016;2022-11-15T07:09:47;8.30;99.90
3406;DHT22;10008;48.682;9.016;2022-11-15T07:12:31;8.40;99.90
3406;DHT22;10008;48.682;9.016;2022-11-15T07:15:17;8.40;99.90
3406;DHT22;10008;48.682;9.016;2022-11-15T07:18:01;8.50;99.90
3406;DHT22;10008;48.682;9.016;2022-11-15T07:20:46;8.50;99.90
3406;DHT22;10008;48.682;9.016;2022-11-15T07:23:31;8.60;99.90
3406;DHT22;10008;48.682;9.016;2022-11-15T07:26:15;8.70;99.90
3406;DHT22;10008;48.682;9.016;2022-11-15T07:28:59;8.80;99.90
3406;DHT22;10008;48.682;9.016;2022-11-15T07:31:43;9.00;99.90
3406;DHT22;10008;48.682;9.016;2022-11-15T07:34:27;9.30;99.90
3406;DHT22;10008;48.682;9.016;2022-11-15T07:37:12;9.60;99.90
3406;DHT22;10008;48.682;9.016;2022-11-15T07:39:56;9.80;99.90
3406;DHT22;10008;48.682;9.016;2022-11-15T07:42:40;10.10;99.90
3406;DHT22;10008;48.682;9.016;2022-11-15T07:45:42;10.30;99.90
3406;DHT22;10008;48.682;9.016;2022-11-15T07:48:27;10.50;99.90
3406;DHT22;10008;48.682;9.016;2022-11-15T07:51:15;10.60;99.90
3406;DHT22;10008;48.682;9.016;2022-11-15T07:54:00;10.80;99.90
3406;DHT22;10008;48.682;9.016;2022-11-15T07:56:44;10.90;99.90
3406;DHT22;10008;48.682;9.016;2022-11-15T07:59:29;11.00;99.90
3406;DHT22;10008;48.682;9.016;2022-11-15T08:02:14;11.10;99.90
3406;DHT22;10008;48.682;9.016;2022-11-15T08:05:02;11.30;99.90
3406;DHT22;10008;48.682;9.016;2022-11-15T08:07:46;11.40;99.90
3406;DHT22;10008;48.682;9.016;2022-11-15T08:10:30;11.40;99.90
3406;DHT22;10008;48.682;9.016;2022-11-15T08:13:15;11.40;99.90
3406;DHT22;10008;48.682;9.016;2022-11-15T08:16:00;11.30;99.90
3406;DHT22;10008;48.682;9.016;2022-11-15T08:18:45;11.30;99.90
3406;DHT22;10008;48.682;9.016;2022-11-15T08:21:30;11.30;99.90
3406;DHT22;10008;48.682;9.016;2022-11-15T08:24:14;11.30;99.90
3406;DHT22;10008;48.682;9.016;2022-11-15T08:26:58;11.40;99.90
3406;DHT22;10008;48.682;9.016;2022-11-15T08:29:47;11.50;99.90
3406;DHT22;10008;48.682;9.016;2022-11-15T08:32:32;11.60;99.90
3406;DHT22;10008;48.682;9.016;2022-11-15T08:35:17;11.70;99.90
3406;DHT22;10008;48.682;9.016;2022-11-15T08:38:02;11.90;99.90
3406;DHT22;10008;48.682;9.016;2022-11-15T08:40:46;12.10;99.90
3406;DHT22;10008;48.682;9.016;2022-11-15T08:43:30;12.20;99.90
3406;DHT22;10008;48.682;9.016;2022-11-15T08:46:15;12.30;99.90
3406;DHT22;10008;48.682;9.016;2022-11-15T08:48:59;12.20;99.90
3406;DHT22;10008;48.682;9.016;2022-11-15T08:51:43;12.20;99.90
3406;DHT22;10008;48.682;9.016;2022-11-15T08:54:27;12.40;99.90
3406;DHT22;10008;48.682;9.016;2022-11-15T08:57:12;12.70;99.90
3406;DHT22;10008;48.682;9.016;2022-11-15T08:59:56;12.70;99.90
3406;DHT22;10008;48.682;9.016;2022-11-15T09:02:40;12.90;99.90
3406;DHT22;10008;48.682;9.016;2022-11-15T09:05:25;13.00;99.90
3406;DHT22;10008;48.682;9.016;2022-11-15T09:08:10;13.10;99.90
3406;DHT22;10008;48.682;9.016;2022-11-15T09:10:55;13.40;99.90
3406;DHT22;10008;48.682;9.016;2022-11-15T09:13:39;13.60;99.90
3406;DHT22;10008;48.682;9.016;2022-11-15T09:16:23;13.90;99.90
3406;DHT22;10008;48.682;9.016;2022-11-15T09:19:07;13.90;99.90
3406;DHT22;10008;48.682;9.016;2022-11-15T09:21:52;14.10;99.90
3406;DHT22;10008;48.682;9.016;2022-11-15T09:24:36;14.20;99.90
3406;DHT22;10008;48.682;9.016;2022-11-15T09:27:21;14.50;99.90
3406;DHT22;10008;48.682;9.016;2022-11-15T09:30:06;14.90;99.90
3406;DHT22;10008;48.682;9.016;2022-11-15T09:32:50;14.80;99.90
3406;DHT22;10008;48.682;9.016;2022-11-15T09:35:35;14.60;99.90
3406;DHT22;10008;48.682;9.016;2022-11-15T09:38:20;14.90;99.90
3406;DHT22;10008;48.682;9.016;2022-11-15T09:44:07;15.10;99.90
3406;DHT22;10008;48.682;9.016;2022-11-15T09:56:00;15.70;99.90
3406;DHT22;10008;48.682;9.016;2022-11-15T09:58:42;15.70;99.90
3406;DHT22;10008;48.682;9.016;2022-11-15T10:04:23;15.50;99.90
3406;DHT22;10008;48.682;9.016;2022-11-15T10:09:59;15.40;99.90
3406;DHT22;10008;48.682;9.016;2022-11-15T10:12:27;15.30;99.90
3406;DHT22;10008;48.682;9.016;2022-11-15T10:15:03;15.30;99.90
3406;DHT22;10008;48.682;9.016;2022-11-15T10:17:54;15.00;99.90
3406;DHT22;10008;48.682;9.016;2022-11-15T10:20:51;14.80;99.90
3406;DHT22;10008;48.682;9.016;2022-11-15T10:23:20;14.50;99.90
3406;DHT22;10008;48.682;9.016;2022-11-15T10:25:47;14.20;99.90
3406;DHT22;10008;48.682;9.016;2022-11-15T10:28:22;14.10;99.90
3406;DHT22;10008;48.682;9.016;2022-11-15T10:30:56;14.20;99.90
3406;DHT22;10008;48.682;9.016;2022-11-15T10:33:38;14.40;99.90
3406;DHT22;10008;48.682;9.016;2022-11-15T10:41:37;14.60;99.90
3406;DHT22;10008;48.682;9.016;2022-11-15T10:49:22;14.40;99.90
3406;DHT22;10008;48.682;9.016;2022-11-15T10:51:53;14.40;99.90
3406;DHT22;10008;48.682;9.016;2022-11-15T10:54:36;14.40;99.90
3406;DHT22;10008;48.682;9.016;2022-11-15T10:57:08;14.40;99.90
3406;DHT22;10008;48.682;9.016;2022-11-15T10:59:37;14.40;99.90
3406;DHT22;10008;48.682;9.016;2022-11-15T11:04:50;14.50;99.90
3406;DHT22;10008;48.682;9.016;2022-11-15T11:07:28;14.60;99.90
3406;DHT22;10008;48.682;9.016;2022-11-15T11:10:18;14.60;99.90
3406;DHT22;10008;48.682;9.016;2022-11-15T11:12:44;14.70;99.90
3406;DHT22;10008;48.682;9.016;2022-11-15T11:15:14;14.80;99.90
3406;DHT22;10008;48.682;9.016;2022-11-15T11:17:51;15.00;99.90
3406;DHT22;10008;48.682;9.016;2022-11-15T11:20:33;15.00;99.90
3406;DHT22;10008;48.682;9.016;2022-11-15T11:26:12;15.00;99.90
3406;DHT22;10008;48.682;9.016;2022-11-15T11:31:47;15.20;99.90
3406;DHT22;10008;48.682;9.016;2022-11-15T11:37:51;15.40;99.90
3406;DHT22;10008;48.682;9.016;2022-11-15T11:48:14;15.50;99.90
3406;DHT22;10008;48.682;9.016;2022-11-15T11:50:45;15.60;99.90
3406;DHT22;10008;48.682;9.016;2022-11-15T11:53:12;15.60;99.90
3406;DHT22;10008;48.682;9.016;2022-11-15T11:55:47;15.70;99.90
3406;DHT22;10008;48.682;9.016;2022-11-15T11:58:36;15.70;99.90
3406;DHT22;10008;48.682;9.016;2022-11-15T12:03:55;15.30;99.90
3406;DHT22;10008;48.682;9.016;2022-11-15T12:06:35;15.20;99.90
3406;DHT22;10008;48.682;9.016;2022-11-15T12:09:33;15.20;99.90
3406;DHT22;10008;48.682;9.016;2022-11-15T12:15:04;14.90;99.90
3406;DHT22;10008;48.682;9.016;2022-11-15T12:17:37;14.80;99.90
3406;DHT22;10008;48.682;9.016;2022-11-15T12:20:29;14.60;99.90
3406;DHT22;10008;48.682;9.016;2022-11-15T12:27:57;14.30;99.90
3406;DHT22;10008;48.682;9.016;2022-11-15T12:30:27;14.20;99.90
3406;DHT22;10008;48.682;9.016;2022-11-15T12:32:57;14.20;99.90
3406;DHT22;10008;48.682;9.016;2022-11-15T12:35:42;14.20;99.90
3406;DHT22;10008;48.682;9.016;2022-11-15T12:38:12;14.10;99.90
3406;DHT22;10008;48.682;9.016;2022-11-15T12:41:13;14.10;99.90
3406;DHT22;10008;48.682;9.016;2022-11-15T12:43:41;14.00;99.90
3406;DHT22;10008;48.682;9.016;2022-11-15T13:02:30;14.30;99.90
3406;DHT22;10008;48.682;9.016;2022-11-15T13:08:00;14.00;99.90
3406;DHT22;10008;48.682;9.016;2022-11-15T13:17:49;13.80;99.90
3406;DHT22;10008;48.682;9.016;2022-11-15T13:22:52;13.80;99.90
3406;DHT22;10008;48.682;9.016;2022-11-15T13:30:54;13.90;99.90
3406;DHT22;10008;48.682;9.016;2022-11-15T13:33:28;14.00;99.90
3406;DHT22;10008;48.682;9.016;2022-11-15T13:35:58;14.00;99.90
3406;DHT22;10008;48.682;9.016;2022-11-15T13:40:49;14.10;99.90
3406;DHT22;10008;48.682;9.016;2022-11-15T13:48:33;14.20;99.90
3406;DHT22;10008;48.682;9.016;2022-11-15T13:51:04;14.30;99.90
3406;DHT22;10008;48.682;9.016;2022-11-15T13:53:33;14.30;99.90
3406;DHT22;10008;48.682;9.016;2022-11-15T13:56:01;14.30;99.90
3406;DHT22;10008;48.682;9.016;2022-11-15T13:58:29;14.20;99.90
3406;DHT22;10008;48.682;9.016;2022-11-15T14:01:03;14.10;99.90
3406;DHT22;10008;48.682;9.016;2022-11-15T14:03:32;14.00;99.90
3406;DHT22;10008;48.682;9.016;2022-11-15T14:06:15;14.00;99.90
3406;DHT22;10008;48.682;9.016;2022-11-15T14:11:34;14.00;99.90
3406;DHT22;10008;48.682;9.016;2022-11-15T14:16:40;14.20;99.90
3406;DHT22;10008;48.682;9.016;2022-11-15T14:19:09;14.30;99.90
3406;DHT22;10008;48.682;9.016;2022-11-15T14:21:35;14.50;99.90
3406;DHT22;10008;48.682;9.016;2022-11-15T14:24:19;14.50;99.90
3406;DHT22;10008;48.682;9.016;2022-11-15T14:26:45;14.50;99.90
3406;DHT22;10008;48.682;9.016;2022-11-15T14:29:28;14.50;99.90
3406;DHT22;10008;48.682;9.016;2022-11-15T14:32:17;14.50;99.90
3406;DHT22;10008;48.682;9.016;2022-11-15T14:34:43;14.50;99.90
3406;DHT22;10008;48.682;9.016;2022-11-15T14:39:48;14.30;99.90
3406;DHT22;10008;48.682;9.016;2022-11-15T14:42:14;14.20;99.90
3406;DHT22;10008;48.682;9.016;2022-11-15T14:44:40;14.10;99.90
3406;DHT22;10008;48.682;9.016;2022-11-15T14:47:06;14.10;99.90
3406;DHT22;10008;48.682;9.016;2022-11-15T14:49:32;14.00;99.90
3406;DHT22;10008;48.682;9.016;2022-11-15T14:51:57;14.00;99.90
3406;DHT22;10008;48.682;9.016;2022-11-15T14:54:23;13.90;99.90
3406;DHT22;10008;48.682;9.016;2022-11-15T14:56:49;13.80;99.90
3406;DHT22;10008;48.682;9.016;2022-11-15T14:59:15;13.70;99.90
3406;DHT22;10008;48.682;9.016;2022-11-15T15:01:40;13.70;99.90
3406;DHT22;10008;48.682;9.016;2022-11-15T15:04:06;13.60;99.90
3406;DHT22;10008;48.682;9.016;2022-11-15T15:06:32;13.60;99.90
3406;DHT22;10008;48.682;9.016;2022-11-15T15:08:57;13.50;99.90
3406;DHT22;10008;48.682;9.016;2022-11-15T15:11:28;13.50;99.90
3406;DHT22;10008;48.682;9.016;2022-11-15T15:13:54;13.50;99.90
3406;DHT22;10008;48.682;9.016;2022-11-15T15:16:25;13.40;99.90
3406;DHT22;10008;48.682;9.016;2022-11-15T15:18:51;13.30;99.90
3406;DHT22;10008;48.682;9.016;2022-11-15T15:21:23;13.20;99.90
3406;DHT22;10008;48.682;9.016;2022-11-15T15:23:50;13.10;99.90
3406;DHT22;10008;48.682;9.016;2022-11-15T15:26:16;13.10;99.90
3406;DHT22;10008;48.682;9.016;2022-11-15T15:28:42;13.10;99.90
3406;DHT22;10008;48.682;9.016;2022-11-15T15:31:09;12.90;99.90
3406;DHT22;10008;48.682;9.016;2022-11-15T15:33:35;12.80;99.90
3406;DHT22;10008;48.682;9.016;2022-11-15T15:36:01;12.70;99.90
3406;DHT22;10008;48.682;9.016;2022-11-15T15:38:27;12.70;99.90
3406;DHT22;10008;48.682;9.016;2022-11-15T15:40:53;12.70;99.90
3406;DHT22;10008;48.682;9.016;2022-11-15T15:43:20;12.70;99.90
3406;DHT22;10008;48.682;9.016;2022-11-15T15:45:45;12.60;99.90
3406;DHT22;10008;48.682;9.016;2022-11-15T15:48:16;12.60;99.90
3406;DHT22;10008;48.682;9.016;2022-11-15T15:50:42;12.60;99.90
3406;DHT22;10008;48.682;9.016;2022-11-15T15:53:09;12.60;99.90
3406;DHT22;10008;48.682;9.016;2022-11-15T15:55:38;12.60;99.90
3406;DHT22;10008;48.682;9.016;2022-11-15T15:58:04;12.70;99.90
3406;DHT22;10008;48.682;9.016;2022-11-15T16:00:30;12.60;99.90
3406;DHT22;10008;48.682;9.016;2022-11-15T16:02:58;12.60;99.90
3406;DHT22;10008;48.682;9.016;2022-11-15T16:05:24;12.60;99.90
3406;DHT22;10008;48.682;9.016;2022-11-15T16:07:50;12.60;99.90
3406;DHT22;10008;48.682;9.016;2022-11-15T16:10:28;12.60;99.90
3406;DHT22;10008;48.682;9.016;2022-11-15T16:12:55;12.60;99.90
3406;DHT22;10008;48.682;9.016;2022-11-15T16:15:22;12.60;99.90
3406;DHT22;10008;48.682;9.016;2022-11-15T16:17:56;12.60;99.90
3406;DHT22;10008;48.682;9.016;2022-11-15T16:20:46;12.60;99.90
3406;DHT22;10008;48.682;9.016;2022-11-15T16:23:16;12.60;99.90
3406;DHT22;10008;48.682;9.016;2022-11-15T16:28:22;12.60;99.90
3406;DHT22;10008;48.682;9.016;2022-11-15T16:30:49;12.60;99.90
3406;DHT22;10008;48.682;9.016;2022-11-15T16:33:15;12.60;99.90
3406;DHT22;10008;48.682;9.016;2022-11-15T16:35:43;12.50;99.90
3406;DHT22;10008;48.682;9.016;2022-11-15T16:38:17;12.50;99.90
3406;DHT22;10008;48.682;9.016;2022-11-15T16:40:43;12.50;99.90
3406;DHT22;10008;48.682;9.016;2022-11-15T16:43:09;12.50;99.90
3406;DHT22;10008;48.682;9.016;2022-11-15T16:45:35;12.50;99.90
3406;DHT22;10008;48.682;9.016;2022-11-15T16:48:01;12.50;99.90
3406;DHT22;10008;48.682;9.016;2022-11-15T16:50:32;12.50;99.90
3406;DHT22;10008;48.682;9.016;2022-11-15T16:53:00;12.50;99.90
3406;DHT22;10008;48.682;9.016;2022-11-15T16:55:28;12.50;99.90
3406;DHT22;10008;48.682;9.016;2022-11-15T16:57:54;12.50;99.90
3406;DHT22;10008;48.682;9.016;2022-11-15T17:00:23;12.40;99.90
3406;DHT22;10008;48.682;9.016;2022-11-15T17:02:50;12.40;99.90
3406;DHT22;10008;48.682;9.016;2022-11-15T17:05:17;12.40;99.90
3406;DHT22;10008;48.682;9.016;2022-11-15T17:07:46;12.40;99.90
3406;DHT22;10008;48.682;9.016;2022-11-15T17:10:15;12.40;99.90
3406;DHT22;10008;48.682;9.016;2022-11-15T17:12:41;12.30;99.90
3406;DHT22;10008;48.682;9.016;2022-11-15T17:15:07;12.20;99.90
3406;DHT22;10008;48.682;9.016;2022-11-15T17:17:33;12.10;99.90
3406;DHT22;10008;48.682;9.016;2022-11-15T17:19:58;12.10;99.90
3406;DHT22;10008;48.682;9.016;2022-11-15T17:22:24;12.10;99.90
3406;DHT22;10008;48.682;9.016;2022-11-15T17:24:50;12.00;99.90
3406;DHT22;10008;48.682;9.016;2022-11-15T17:27:16;12.10;99.90
3406;DHT22;10008;48.682;9.016;2022-11-15T17:29:42;12.00;99.90
3406;DHT22;10008;48.682;9.016;2022-11-15T17:32:08;12.10;99.90
3406;DHT22;10008;48.682;9.016;2022-11-15T17:34:33;12.10;99.90
3406;DHT22;10008;48.682;9.016;2022-11-15T17:36:59;12.10;99.90
3406;DHT22;10008;48.682;9.016;2022-11-15T17:39:25;12.10;99.90
3406;DHT22;10008;48.682;9.016;2022-11-15T17:41:51;12.10;99.90
3406;DHT22;10008;48.682;9.016;2022-11-15T17:44:17;12.10;99.90
3406;DHT22;10008;48.682;9.016;2022-11-15T17:46:43;12.10;99.90
3406;DHT22;10008;48.682;9.016;2022-11-15T17:49:09;12.10;99.90
3406;DHT22;10008;48.682;9.016;2022-11-15T17:51:35;12.10;99.90
3406;DHT22;10008;48.682;9.016;2022-11-15T17:54:01;12.10;99.90
3406;DHT22;10008;48.682;9.016;2022-11-15T17:56:28;12.10;99.90
3406;DHT22;10008;48.682;9.016;2022-11-15T17:58:59;12.10;99.90
3406;DHT22;10008;48.682;9.016;2022-11-15T18:01:36;12.10;99.90
3406;DHT22;10008;48.682;9.016;2022-11-15T18:04:04;12.10;99.90
3406;DHT22;10008;48.682;9.016;2022-11-15T18:06:33;12.00;99.90
3406;DHT22;10008;48.682;9.016;2022-11-15T18:08:59;11.90;99.90
3406;DHT22;10008;48.682;9.016;2022-11-15T18:11:27;11.90;99.90
3406;DHT22;10008;48.682;9.016;2022-11-15T18:14:00;11.90;99.90
3406;DHT22;10008;48.682;9.016;2022-11-15T18:16:30;11.80;99.90
3406;DHT22;10008;48.682;9.016;2022-11-15T18:18:57;11.90;99.90
3406;DHT22;10008;48.682;9.016;2022-11-15T18:21:26;11.90;99.90
3406;DHT22;10008;48.682;9.016;2022-11-15T18:23:56;12.00;99.90
3406;DHT22;10008;48.682;9.016;2022-11-15T18:26:23;11.90;99.90
3406;DHT22;10008;48.682;9.016;2022-11-15T18:28:56;11.90;99.90
3406;DHT22;10008;48.682;9.016;2022-11-15T18:31:26;11.90;99.90
3406;DHT22;10008;48.682;9.016;2022-11-15T18:33:53;11.80;99.90
3406;DHT22;10008;48.682;9.016;2022-11-15T18:36:21;11.80;99.90
3406;DHT22;10008;48.682;9.016;2022-11-15T18:38:47;11.90;99.90
3406;DHT22;10008;48.682;9.016;2022-11-15T18:41:17;11.90;99.90
3406;DHT22;10008;48.682;9.016;2022-11-15T18:43:46;11.90;99.90
3406;DHT22;10008;48.682;9.016;2022-11-15T18:46:17;11.90;99.90
3406;DHT22;10008;48.682;9.016;2022-11-15T18:48:44;12.00;99.90
3406;DHT22;10008;48.682;9.016;2022-11-15T18:51:14;12.00;99.90
3406;DHT22;10008;48.682;9.016;2022-11-15T18:53:41;11.90;99.90
3406;DHT22;10008;48.682;9.016;2022-11-15T18:56:13;11.90;99.90
3406;DHT22;10008;48.682;9.016;2022-11-15T18:58:44;12.00;99.90
3406;DHT22;10008;48.682;9.016;2022-11-15T19:01:13;12.00;99.90
3406;DHT22;10008;48.682;9.016;2022-11-15T19:03:41;12.00;99.90
3406;DHT22;10008;48.682;9.016;2022-11-15T19:06:09;12.00;99.90
3406;DHT22;10008;48.682;9.016;2022-11-15T19:08:38;12.00;99.90
3406;DHT22;10008;48.682;9.016;2022-11-15T19:11:13;12.00;99.90
3406;DHT22;10008;48.682;9.016;2022-11-15T19:13:40;12.00;99.90
3406;DHT22;10008;48.682;9.016;2022-11-15T19:16:06;12.00;99.90
3406;DHT22;10008;48.682;9.016;2022-11-15T19:18:33;12.00;99.90
3406;DHT22;10008;48.682;9.016;2022-11-15T19:21:04;12.00;99.90
3406;DHT22;10008;48.682;9.016;2022-11-15T19:23:34;12.00;99.90
3406;DHT22;10008;48.682;9.016;2022-11-15T19:26:00;12.00;99.90
3406;DHT22;10008;48.682;9.016;2022-11-15T19:28:27;12.00;99.90
3406;DHT22;10008;48.682;9.016;2022-11-15T19:31:01;11.90;99.90
3406;DHT22;10008;48.682;9.016;2022-11-15T19:33:27;11.90;99.90